Time;durP1;ratioP1;P1;durP2;ratioP2;P2;SDS_P1;SDS_P2;PMS_P1;PMS_P2;Temp;Humidity;BMP_temperature;BMP_pressure;BME280_temperature;BME280_humidity;BME280_pressure;Samples;Min_cycle;Max_cycle;Signal;HPM_P1;HPM_P2
2022/12/07 00:00:21;;;;;;;143.65;50.80;;;;;;;;;;1036052;28;20021;-77
2022/12/07 00:00:51;;;;;;;131.70;47.95;;;;;;;;;;1036315;28;20025;-77
2022/12/07 00:01:23;;;;;;;156.27;51.75;;;;;;;;;;1037020;28;20374;-77
2022/12/07 00:01:53;;;;;;;136.20;50.75;;;;;;;;;;1037797;28;20030;-77
2022/12/07 00:02:24;;;;;;;134.95;49.17;;;;;;;;;;1033190;28;20029;-77
2022/12/07 00:02:55;;;;;;;142.43;49.72;;;;;;;;;;1033527;28;20025;-78
2022/12/07 00:03:26;;;;;;;120.82;51.45;;;;;;;;;;1037760;28;20030;-78
2022/12/07 00:04:05;;;;;;;137.90;48.83;;;;;;;;;;1036978;28;20030;-77
2022/12/07 00:04:36;;;;;;;147.70;52.63;;;;;;;;;;1036625;28;20512;-77
2022/12/07 00:05:06;;;;;;;147.25;51.95;;;;;;;;;;1037322;28;20088;-77
2022/12/07 00:05:37;;;;;;;143.60;55.00;;;;;;;;;;1037855;28;20030;-77
2022/12/07 00:06:09;;;;;;;141.05;50.60;;;;;;;;;;1037558;28;20033;-77
2022/12/07 00:06:41;;;;;;;137.77;49.10;;;;;;;;;;1037838;28;20021;-77
2022/12/07 00:07:11;;;;;;;144.75;52.70;;;;;;;;;;1037391;28;20026;-77
2022/12/07 00:07:42;;;;;;;150.30;50.88;;;;;;;;;;1037031;28;20052;-77
2022/12/07 00:08:12;;;;;;;131.27;48.28;;;;;;;;;;1036934;28;20025;-77
2022/12/07 00:08:43;;;;;;;136.45;54.80;;;;;;;;;;1038648;28;20130;-77
2022/12/07 00:09:15;;;;;;;138.65;50.95;;;;;;;;;;1033230;28;20116;-77
2022/12/07 00:09:46;;;;;;;139.80;50.08;;;;;;;;;;1031278;28;20042;-77
2022/12/07 00:10:16;;;;;;;129.77;55.63;;;;;;;;;;1035144;28;20513;-77
2022/12/07 00:10:47;;;;;;;135.35;52.63;;;;;;;;;;1034847;28;20053;-77
2022/12/07 00:11:19;;;;;;;146.90;55.15;;;;;;;;;;1037387;28;20053;-77
2022/12/07 00:11:51;;;;;;;137.05;51.55;;;;;;;;;;1037014;28;20061;-77
2022/12/07 00:12:21;;;;;;;129.07;51.05;;;;;;;;;;1036153;28;20111;-77
2022/12/07 00:12:52;;;;;;;138.13;51.63;;;;;;;;;;1036536;28;20497;-77
2022/12/07 00:13:22;;;;;;;156.27;56.30;;;;;;;;;;1037319;28;20055;-77
2022/12/07 00:13:54;;;;;;;136.80;54.67;;;;;;;;;;1037145;28;20056;-77
2022/12/07 00:14:25;;;;;;;133.13;55.10;;;;;;;;;;1034766;28;20022;-77
2022/12/07 00:14:55;;;;;;;132.07;49.08;;;;;;;;;;1032802;28;20026;-77
2022/12/07 00:15:26;;;;;;;134.20;50.00;;;;;;;;;;1031305;28;20124;-77
2022/12/07 00:15:59;;;;;;;129.98;49.72;;;;;;;;;;1031138;28;20026;-77
2022/12/07 00:16:31;;;;;;;137.32;49.05;;;;;;;;;;1035100;28;20021;-77
2022/12/07 00:17:02;;;;;;;138.90;51.20;;;;;;;;;;1038311;28;20021;-77
2022/12/07 00:17:33;;;;;;;131.73;52.40;;;;;;;;;;1037936;28;20045;-77
2022/12/07 00:18:04;;;;;;;140.43;48.47;;;;;;;;;;1036732;28;20068;-77
2022/12/07 00:18:35;;;;;;;130.23;48.55;;;;;;;;;;1037813;28;20025;-77
2022/12/07 00:19:05;;;;;;;145.10;50.60;;;;;;;;;;1035585;28;20029;-77
2022/12/07 00:19:36;;;;;;;128.55;48.92;;;;;;;;;;1036613;28;20014;-77
2022/12/07 00:20:06;;;;;;;146.82;50.85;;;;;;;;;;1036891;28;20025;-77
2022/12/07 00:20:37;;;;;;;136.63;51.03;;;;;;;;;;1034423;28;20112;-77
2022/12/07 00:21:30;;;;;;;124.05;47.55;;;;;;;;;;1031013;28;20423;-77
2022/12/07 00:22:01;;;;;;;126.22;47.40;;;;;;;;;;1021927;28;20471;-78
2022/12/07 00:22:31;;;;;;;139.80;49.38;;;;;;;;;;1037683;28;20030;-78
2022/12/07 00:23:02;;;;;;;138.43;55.47;;;;;;;;;;1037345;28;20485;-78
2022/12/07 00:23:33;;;;;;;140.73;51.40;;;;;;;;;;1037663;28;20047;-78
2022/12/07 00:24:04;;;;;;;137.70;47.92;;;;;;;;;;1037041;28;20041;-77
2022/12/07 00:24:35;;;;;;;141.20;49.00;;;;;;;;;;1035606;28;20493;-77
2022/12/07 00:25:06;;;;;;;136.80;52.33;;;;;;;;;;1035555;28;20025;-77
2022/12/07 00:25:36;;;;;;;138.57;47.78;;;;;;;;;;1036516;28;20032;-77
2022/12/07 00:26:08;;;;;;;126.32;44.05;;;;;;;;;;1036854;28;20460;-77
2022/12/07 00:26:39;;;;;;;129.05;47.55;;;;;;;;;;1037444;28;20029;-77
2022/12/07 00:27:10;;;;;;;120.05;46.45;;;;;;;;;;1037097;28;20075;-77
2022/12/07 00:27:40;;;;;;;123.28;49.58;;;;;;;;;;1037374;28;20097;-77
2022/12/07 00:28:11;;;;;;;124.47;46.33;;;;;;;;;;1037350;28;20461;-77
2022/12/07 00:28:44;;;;;;;127.25;47.58;;;;;;;;;;1037679;28;20022;-77
2022/12/07 00:29:17;;;;;;;124.40;45.58;;;;;;;;;;1037125;28;20034;-77
2022/12/07 00:29:47;;;;;;;139.98;48.15;;;;;;;;;;1037728;28;20087;-77
2022/12/07 00:30:18;;;;;;;132.70;45.58;;;;;;;;;;1037741;28;20021;-77
2022/12/07 00:30:48;;;;;;;139.80;48.92;;;;;;;;;;1037554;28;20045;-77
2022/12/07 00:31:19;;;;;;;125.97;47.90;;;;;;;;;;1038302;28;20358;-77
2022/12/07 00:31:50;;;;;;;132.57;48.90;;;;;;;;;;1037499;28;20033;-77
2022/12/07 00:32:21;;;;;;;137.70;49.55;;;;;;;;;;1037115;28;20494;-77
2022/12/07 00:32:51;;;;;;;145.27;50.92;;;;;;;;;;1037268;28;20026;-77
2022/12/07 00:33:22;;;;;;;128.07;49.47;;;;;;;;;;1038236;28;20026;-77
2022/12/07 00:33:52;;;;;;;136.60;47.13;;;;;;;;;;1036507;28;20557;-77
2022/12/07 00:34:23;;;;;;;137.05;50.22;;;;;;;;;;1038009;28;20473;-77
2022/12/07 00:34:53;;;;;;;138.57;50.58;;;;;;;;;;1037931;28;20118;-77
2022/12/07 00:35:24;;;;;;;126.22;46.17;;;;;;;;;;1036759;28;20531;-77
2022/12/07 00:35:55;;;;;;;132.98;48.38;;;;;;;;;;1036991;28;20032;-77
2022/12/07 00:36:26;;;;;;;133.93;45.63;;;;;;;;;;1038053;28;20055;-77
2022/12/07 00:36:56;;;;;;;141.52;49.85;;;;;;;;;;1035562;28;20050;-77
2022/12/07 00:37:27;;;;;;;134.00;52.25;;;;;;;;;;1036059;28;20022;-77
2022/12/07 00:37:58;;;;;;;131.82;51.47;;;;;;;;;;1037902;28;20021;-77
2022/12/07 00:38:29;;;;;;;136.60;52.90;;;;;;;;;;1038188;28;20465;-77
2022/12/07 00:39:00;;;;;;;142.63;52.67;;;;;;;;;;1033483;28;20026;-77
2022/12/07 00:39:31;;;;;;;136.45;49.35;;;;;;;;;;1038106;28;20505;-77
2022/12/07 00:40:01;;;;;;;143.57;50.90;;;;;;;;;;1037949;28;20021;-77
2022/12/07 00:40:32;;;;;;;130.52;48.95;;;;;;;;;;1038771;28;20059;-77
2022/12/07 00:41:04;;;;;;;131.23;46.40;;;;;;;;;;1038173;28;20021;-77
2022/12/07 00:41:34;;;;;;;131.13;51.33;;;;;;;;;;1038375;28;20401;-77
2022/12/07 00:42:05;;;;;;;126.53;50.97;;;;;;;;;;1037722;28;20022;-77
2022/12/07 00:42:36;;;;;;;134.02;47.95;;;;;;;;;;1037071;28;20104;-77
2022/12/07 00:43:06;;;;;;;140.48;50.47;;;;;;;;;;1035468;28;20577;-77
2022/12/07 00:43:37;;;;;;;124.63;46.40;;;;;;;;;;1038432;28;20083;-77
2022/12/07 00:44:08;;;;;;;116.75;47.63;;;;;;;;;;1037221;28;20036;-77
2022/12/07 00:44:38;;;;;;;129.10;49.20;;;;;;;;;;1038204;28;20018;-77
2022/12/07 00:45:09;;;;;;;140.68;50.90;;;;;;;;;;1037973;28;20052;-77
2022/12/07 00:45:40;;;;;;;137.90;47.60;;;;;;;;;;1038243;28;20049;-77
2022/12/07 00:46:11;;;;;;;137.13;50.70;;;;;;;;;;1036342;28;20025;-77
2022/12/07 00:46:41;;;;;;;150.30;50.97;;;;;;;;;;1038418;28;20069;-77
2022/12/07 00:47:12;;;;;;;153.25;57.58;;;;;;;;;;1037011;28;20040;-77
2022/12/07 00:47:43;;;;;;;134.65;50.50;;;;;;;;;;1038436;28;20567;-77
2022/12/07 00:48:13;;;;;;;130.88;51.08;;;;;;;;;;1037889;28;20430;-77
2022/12/07 00:48:44;;;;;;;142.38;52.47;;;;;;;;;;1038487;28;20014;-77
2022/12/07 00:49:15;;;;;;;166.82;53.60;;;;;;;;;;1037352;28;20484;-77
2022/12/07 00:49:45;;;;;;;149.25;54.33;;;;;;;;;;1038035;28;20057;-77
2022/12/07 00:50:16;;;;;;;150.75;50.47;;;;;;;;;;1037147;28;20021;-77
2022/12/07 00:50:47;;;;;;;167.25;54.20;;;;;;;;;;1039269;28;20118;-77
2022/12/07 00:51:19;;;;;;;135.43;50.28;;;;;;;;;;1037629;28;20030;-77
2022/12/07 00:51:49;;;;;;;160.23;52.35;;;;;;;;;;1036880;28;20027;-77
2022/12/07 00:52:20;;;;;;;134.43;50.08;;;;;;;;;;1038922;28;20484;-77
2022/12/07 00:52:50;;;;;;;133.48;48.90;;;;;;;;;;1038395;28;20116;-77
2022/12/07 00:53:22;;;;;;;139.82;47.95;;;;;;;;;;1038175;28;20071;-77
2022/12/07 00:53:53;;;;;;;131.52;48.67;;;;;;;;;;1037094;28;20082;-77
2022/12/07 00:54:23;;;;;;;140.23;51.28;;;;;;;;;;1039010;28;20075;-77
2022/12/07 00:54:54;;;;;;;141.65;54.58;;;;;;;;;;1037832;28;20029;-77
2022/12/07 00:55:24;;;;;;;134.73;50.40;;;;;;;;;;1038238;28;20061;-77
2022/12/07 00:55:56;;;;;;;137.45;51.20;;;;;;;;;;1037867;28;20148;-77
2022/12/07 00:56:28;;;;;;;143.85;50.50;;;;;;;;;;1035705;28;20018;-77
2022/12/07 00:56:58;;;;;;;148.40;50.88;;;;;;;;;;1040009;28;20032;-77
2022/12/07 00:57:30;;;;;;;140.73;51.42;;;;;;;;;;1040123;28;20021;-77
2022/12/07 00:58:00;;;;;;;119.55;47.13;;;;;;;;;;1038547;28;20401;-77
2022/12/07 00:58:31;;;;;;;134.93;50.40;;;;;;;;;;1038247;28;20026;-77
2022/12/07 00:59:03;;;;;;;147.15;52.25;;;;;;;;;;1037802;28;20463;-77
2022/12/07 00:59:33;;;;;;;129.82;51.88;;;;;;;;;;1038082;28;20095;-77
2022/12/07 01:00:04;;;;;;;142.23;49.38;;;;;;;;;;1035251;28;20052;-77
2022/12/07 01:00:36;;;;;;;142.82;52.15;;;;;;;;;;1035931;28;20037;-77
2022/12/07 01:01:07;;;;;;;125.90;49.30;;;;;;;;;;1037799;28;20033;-77
2022/12/07 01:01:38;;;;;;;132.40;51.97;;;;;;;;;;1037320;28;20021;-77
2022/12/07 01:02:08;;;;;;;134.25;51.03;;;;;;;;;;1037287;28;20025;-77
2022/12/07 01:02:39;;;;;;;126.25;49.47;;;;;;;;;;1038139;28;20025;-77
2022/12/07 01:03:12;;;;;;;140.98;51.35;;;;;;;;;;1037926;28;20036;-77
2022/12/07 01:03:43;;;;;;;120.80;47.10;;;;;;;;;;1037936;28;20056;-77
2022/12/07 01:04:13;;;;;;;147.80;52.58;;;;;;;;;;1037483;28;20040;-77
2022/12/07 01:04:44;;;;;;;131.05;49.50;;;;;;;;;;1038248;28;20021;-77
2022/12/07 01:05:14;;;;;;;125.82;52.17;;;;;;;;;;1037790;28;20112;-77
2022/12/07 01:05:52;;;;;;;118.35;50.58;;;;;;;;;;1037750;28;20494;-77
2022/12/07 01:06:24;;;;;;;123.25;47.38;;;;;;;;;;1037426;28;20026;-77
2022/12/07 01:06:55;;;;;;;139.25;50.65;;;;;;;;;;1037677;28;20515;-77
2022/12/07 01:07:25;;;;;;;145.60;50.03;;;;;;;;;;1034965;28;20116;-77
2022/12/07 01:07:56;;;;;;;133.80;49.50;;;;;;;;;;1038308;28;20501;-77
2022/12/07 01:08:27;;;;;;;128.50;44.80;;;;;;;;;;1038079;28;20048;-77
2022/12/07 01:08:57;;;;;;;138.93;50.55;;;;;;;;;;1037157;28;20034;-77
2022/12/07 01:09:28;;;;;;;138.93;52.88;;;;;;;;;;1038356;28;20480;-77
2022/12/07 01:09:59;;;;;;;132.60;49.80;;;;;;;;;;1037752;28;20017;-77
2022/12/07 01:10:30;;;;;;;135.73;50.47;;;;;;;;;;1038074;28;20048;-77
2022/12/07 01:11:03;;;;;;;139.38;51.33;;;;;;;;;;1033651;28;20517;-77
2022/12/07 01:11:34;;;;;;;144.98;52.00;;;;;;;;;;1034208;28;20175;-77
2022/12/07 01:12:04;;;;;;;150.27;49.65;;;;;;;;;;1034376;28;20018;-77
2022/12/07 01:12:35;;;;;;;125.72;46.70;;;;;;;;;;1038942;28;20566;-77
2022/12/07 01:13:05;;;;;;;119.38;46.63;;;;;;;;;;1037007;28;20029;-77
2022/12/07 01:13:36;;;;;;;122.88;48.30;;;;;;;;;;1038121;28;20021;-77
2022/12/07 01:14:06;;;;;;;135.82;49.05;;;;;;;;;;1037836;28;20021;-77
2022/12/07 01:14:37;;;;;;;150.40;51.03;;;;;;;;;;1035887;28;20065;-77
2022/12/07 01:15:08;;;;;;;128.77;47.60;;;;;;;;;;1038477;28;20501;-77
2022/12/07 01:15:39;;;;;;;123.07;46.63;;;;;;;;;;1037759;28;20108;-78
2022/12/07 01:16:11;;;;;;;127.90;49.75;;;;;;;;;;1037366;28;20057;-78
2022/12/07 01:16:42;;;;;;;124.32;47.78;;;;;;;;;;1037929;28;20148;-77
2022/12/07 01:17:12;;;;;;;135.27;49.83;;;;;;;;;;1035420;28;20049;-77
2022/12/07 01:17:43;;;;;;;125.38;50.28;;;;;;;;;;1035896;28;20029;-77
2022/12/07 01:18:13;;;;;;;136.85;48.55;;;;;;;;;;1035572;28;20493;-77
2022/12/07 01:18:46;;;;;;;152.35;48.28;;;;;;;;;;1037696;28;20018;-77
2022/12/07 01:19:16;;;;;;;128.65;47.72;;;;;;;;;;1037828;28;20022;-77
2022/12/07 01:19:47;;;;;;;139.07;48.38;;;;;;;;;;1037587;28;20022;-77
2022/12/07 01:20:18;;;;;;;141.88;48.42;;;;;;;;;;1038021;28;20452;-77
2022/12/07 01:20:57;;;;;;;135.90;50.92;;;;;;;;;;1038007;28;20099;-77
2022/12/07 01:21:29;;;;;;;134.45;49.35;;;;;;;;;;1037670;28;20044;-77
2022/12/07 01:22:00;;;;;;;141.68;48.20;;;;;;;;;;1036345;28;20464;-77
2022/12/07 01:22:30;;;;;;;128.32;48.50;;;;;;;;;;1037681;28;20040;-78
2022/12/07 01:23:01;;;;;;;131.48;48.97;;;;;;;;;;1038734;28;20414;-78
2022/12/07 01:23:32;;;;;;;145.68;49.58;;;;;;;;;;1032354;28;20037;-77
2022/12/07 01:24:07;;;;;;;149.85;55.78;;;;;;;;;;1033451;28;20136;-76
2022/12/07 01:24:38;;;;;;;147.57;52.83;;;;;;;;;;1035201;28;20561;-77
2022/12/07 01:25:09;;;;;;;158.88;53.28;;;;;;;;;;1037615;28;20029;-77
2022/12/07 01:25:39;;;;;;;135.98;49.42;;;;;;;;;;1037210;28;20037;-77
2022/12/07 01:26:11;;;;;;;149.23;55.42;;;;;;;;;;1037281;28;20128;-77
2022/12/07 01:26:42;;;;;;;146.30;55.78;;;;;;;;;;1033010;28;20585;-77
2022/12/07 01:27:13;;;;;;;164.05;54.88;;;;;;;;;;1033011;28;20025;-76
2022/12/07 01:27:43;;;;;;;118.35;48.47;;;;;;;;;;1034148;28;20507;-76
2022/12/07 01:28:14;;;;;;;141.18;53.08;;;;;;;;;;1034131;28;20026;-76
2022/12/07 01:28:45;;;;;;;149.02;54.60;;;;;;;;;;1036583;28;20523;-76
2022/12/07 01:29:15;;;;;;;136.40;53.47;;;;;;;;;;1032842;28;20389;-76
2022/12/07 01:29:46;;;;;;;135.27;55.50;;;;;;;;;;1037511;28;20485;-77
2022/12/07 01:30:17;;;;;;;161.27;55.63;;;;;;;;;;1036396;28;20026;-79
2022/12/07 01:30:57;;;;;;;143.57;49.63;;;;;;;;;;1033364;28;20109;-76
2022/12/07 01:31:28;;;;;;;154.85;51.28;;;;;;;;;;1038110;28;20095;-76
2022/12/07 01:31:58;;;;;;;146.52;53.95;;;;;;;;;;1037877;28;20116;-78
2022/12/07 01:32:29;;;;;;;144.25;53.67;;;;;;;;;;1038458;28;20128;-76
2022/12/07 01:32:59;;;;;;;132.93;50.53;;;;;;;;;;1038470;28;20017;-76
2022/12/07 01:33:31;;;;;;;160.48;53.35;;;;;;;;;;1038105;28;20025;-78
2022/12/07 01:34:03;;;;;;;136.43;53.08;;;;;;;;;;1036608;28;20026;-77
2022/12/07 01:34:33;;;;;;;134.15;53.22;;;;;;;;;;1036454;28;20608;-75
2022/12/07 01:35:04;;;;;;;168.80;54.58;;;;;;;;;;1037869;28;20028;-77
2022/12/07 01:35:35;;;;;;;151.27;58.92;;;;;;;;;;1037539;28;20044;-77
2022/12/07 01:36:08;;;;;;;151.65;55.30;;;;;;;;;;1034890;28;20025;-76
2022/12/07 01:36:39;;;;;;;155.85;55.75;;;;;;;;;;1031965;28;20019;-76
2022/12/07 01:37:09;;;;;;;159.05;57.03;;;;;;;;;;1032599;28;20033;-77
2022/12/07 01:37:40;;;;;;;165.38;51.60;;;;;;;;;;1032513;28;20029;-77
2022/12/07 01:38:11;;;;;;;128.35;47.83;;;;;;;;;;1030767;28;20049;-78
2022/12/07 01:38:42;;;;;;;129.00;54.03;;;;;;;;;;1031870;28;20034;-80
2022/12/07 01:39:15;;;;;;;134.50;51.42;;;;;;;;;;1029922;28;20060;-77
2022/12/07 01:39:48;;;;;;;126.22;50.65;;;;;;;;;;1029892;28;20084;-77
2022/12/07 01:40:19;;;;;;;136.32;51.53;;;;;;;;;;1033468;28;20100;-77
2022/12/07 01:40:56;;;;;;;139.57;49.38;;;;;;;;;;1035239;28;20092;-78
2022/12/07 01:41:30;;;;;;;143.07;51.95;;;;;;;;;;1036843;28;20141;-77
2022/12/07 01:42:00;;;;;;;144.88;49.78;;;;;;;;;;1035666;28;20045;-79
2022/12/07 01:42:33;;;;;;;138.43;52.08;;;;;;;;;;1037291;28;20026;-78
2022/12/07 01:43:09;;;;;;;137.73;51.80;;;;;;;;;;1037557;28;20447;-79
2022/12/07 01:43:59;;;;;;;130.32;49.85;;;;;;;;;;1033378;28;20116;-77
2022/12/07 01:44:31;;;;;;;111.18;47.70;;;;;;;;;;1033698;28;20030;-79
2022/12/07 01:45:31;;;;;;;147.07;50.95;;;;;;;;;;1035808;28;20468;-77
2022/12/07 01:46:04;;;;;;;143.90;51.00;;;;;;;;;;1025576;28;20388;-77
2022/12/07 01:46:38;;;;;;;142.38;49.58;;;;;;;;;;1037042;28;20030;-78
2022/12/07 01:47:12;;;;;;;132.88;49.00;;;;;;;;;;1035072;28;20029;-78
2022/12/07 01:47:44;;;;;;;137.45;49.05;;;;;;;;;;1032481;28;20022;-78
2022/12/07 01:48:17;;;;;;;139.02;50.28;;;;;;;;;;1032361;28;20030;-78
2022/12/07 01:48:50;;;;;;;144.75;48.88;;;;;;;;;;1031643;28;20058;-79
2022/12/07 01:49:28;;;;;;;131.77;51.58;;;;;;;;;;1032150;28;20045;-78
2022/12/07 01:49:58;;;;;;;142.07;51.95;;;;;;;;;;1032676;28;20425;-77
2022/12/07 01:50:31;;;;;;;124.80;47.88;;;;;;;;;;1029819;28;20137;-78
2022/12/07 01:51:05;;;;;;;144.00;50.05;;;;;;;;;;1033210;28;20070;-78
2022/12/07 01:51:37;;;;;;;134.95;53.53;;;;;;;;;;1031847;28;20022;-78
2022/12/07 01:52:10;;;;;;;151.50;52.72;;;;;;;;;;1031273;28;20513;-77
2022/12/07 01:52:42;;;;;;;137.25;52.22;;;;;;;;;;1007117;28;20052;-77
2022/12/07 01:53:13;;;;;;;134.07;51.13;;;;;;;;;;1033283;28;20603;-77
2022/12/07 01:53:45;;;;;;;136.43;52.15;;;;;;;;;;1032708;28;20030;-77
2022/12/07 01:54:16;;;;;;;133.75;51.35;;;;;;;;;;1035316;28;20366;-77
2022/12/07 01:54:47;;;;;;;140.90;53.55;;;;;;;;;;1029680;28;20027;-79
2022/12/07 01:55:19;;;;;;;131.48;52.33;;;;;;;;;;1029757;28;20065;-77
2022/12/07 01:55:52;;;;;;;139.15;49.35;;;;;;;;;;1030274;28;20029;-77
2022/12/07 01:56:24;;;;;;;144.93;51.28;;;;;;;;;;1031204;28;20026;-78
2022/12/07 01:56:56;;;;;;;132.30;48.78;;;;;;;;;;1025855;28;20089;-77
2022/12/07 01:57:27;;;;;;;126.07;45.80;;;;;;;;;;1030320;28;20093;-78
2022/12/07 01:57:58;;;;;;;154.00;52.22;;;;;;;;;;1028109;28;20093;-77
2022/12/07 01:58:29;;;;;;;133.52;52.58;;;;;;;;;;1033808;28;20433;-77
2022/12/07 01:59:01;;;;;;;130.65;47.60;;;;;;;;;;1031450;28;20058;-77
2022/12/07 01:59:31;;;;;;;122.40;44.13;;;;;;;;;;1030508;28;20031;-79
2022/12/07 02:00:03;;;;;;;113.63;45.35;;;;;;;;;;1029387;28;20026;-77
2022/12/07 02:00:34;;;;;;;122.93;45.60;;;;;;;;;;1029619;28;20054;-78
2022/12/07 02:01:05;;;;;;;128.80;44.83;;;;;;;;;;1029213;28;20033;-77
2022/12/07 02:01:35;;;;;;;121.40;47.38;;;;;;;;;;1030631;28;20022;-76
2022/12/07 02:02:10;;;;;;;147.13;51.33;;;;;;;;;;1033215;28;20024;-77
2022/12/07 02:02:53;;;;;;;125.93;47.75;;;;;;;;;;1037410;28;20500;-76
2022/12/07 02:03:30;;;;;;;117.68;43.22;;;;;;;;;;1035872;28;20133;-78
2022/12/07 02:04:01;;;;;;;114.03;43.58;;;;;;;;;;1036573;28;20025;-78
2022/12/07 02:04:31;;;;;;;119.75;42.30;;;;;;;;;;1038440;28;20034;-78
2022/12/07 02:05:04;;;;;;;127.38;49.30;;;;;;;;;;1034684;28;20049;-78
2022/12/07 02:05:35;;;;;;;135.77;48.10;;;;;;;;;;1037425;28;20033;-79
2022/12/07 02:06:06;;;;;;;114.80;47.65;;;;;;;;;;1035675;28;20022;-79
2022/12/07 02:06:38;;;;;;;112.38;45.22;;;;;;;;;;1031365;28;20037;-81
2022/12/07 02:07:08;;;;;;;127.43;45.47;;;;;;;;;;1029387;28;20612;-78
2022/12/07 02:07:39;;;;;;;119.65;43.90;;;;;;;;;;1029227;28;20037;-78
2022/12/07 02:08:11;;;;;;;120.57;46.78;;;;;;;;;;1033380;28;20029;-79
2022/12/07 02:08:42;;;;;;;131.43;48.22;;;;;;;;;;1035524;28;20536;-78
2022/12/07 02:09:13;;;;;;;116.95;43.33;;;;;;;;;;1038709;28;20385;-80
2022/12/07 02:09:43;;;;;;;128.68;49.00;;;;;;;;;;1037151;28;20022;-78
2022/12/07 02:10:18;;;;;;;137.82;49.50;;;;;;;;;;1032224;28;20037;-78
2022/12/07 02:10:49;;;;;;;141.85;53.92;;;;;;;;;;1036994;28;20025;-81
2022/12/07 02:11:21;;;;;;;113.07;45.90;;;;;;;;;;1034389;28;20018;-80
2022/12/07 02:11:52;;;;;;;129.73;47.55;;;;;;;;;;1029729;28;20065;-77
2022/12/07 02:12:23;;;;;;;134.10;49.45;;;;;;;;;;1033765;28;20033;-79
2022/12/07 02:13:06;;;;;;;138.57;50.00;;;;;;;;;;1033921;28;20073;-79
2022/12/07 02:13:39;;;;;;;152.95;52.03;;;;;;;;;;1039317;28;20025;-80
2022/12/07 02:14:10;;;;;;;127.65;48.08;;;;;;;;;;1040651;28;20018;-78
2022/12/07 02:14:41;;;;;;;135.98;46.75;;;;;;;;;;1039365;28;20052;-78
2022/12/07 02:15:12;;;;;;;139.45;48.55;;;;;;;;;;1037651;28;20564;-78
2022/12/07 02:15:42;;;;;;;112.75;45.28;;;;;;;;;;1037770;28;20017;-78
2022/12/07 02:16:31;;;;;;;127.43;49.83;;;;;;;;;;1037606;28;20064;-80
2022/12/07 02:17:14;;;;;;;140.32;48.75;;;;;;;;;;1035928;28;20471;-80
2022/12/07 02:17:45;;;;;;;116.53;49.40;;;;;;;;;;1037317;28;20090;-80
2022/12/07 02:18:21;;;;;;;126.32;51.35;;;;;;;;;;1032659;28;20026;-79
2022/12/07 02:18:58;;;;;;;119.22;46.95;;;;;;;;;;1033267;28;20776;-78
2022/12/07 02:19:34;;;;;;;130.35;49.15;;;;;;;;;;1031081;28;20053;-80
2022/12/07 02:20:15;;;;;;;137.88;51.53;;;;;;;;;;1034663;28;20120;-77
2022/12/07 02:20:52;;;;;;;120.28;48.75;;;;;;;;;;1036682;28;20030;-79
2022/12/07 02:21:23;;;;;;;162.30;55.00;;;;;;;;;;1037487;28;20601;-78
2022/12/07 02:22:02;;;;;;;158.38;51.17;;;;;;;;;;1037615;28;20021;-77
2022/12/07 02:22:51;;;;;;;163.10;54.90;;;;;;;;;;1035635;28;20276;-78
2022/12/07 02:23:42;;;;;;;147.63;53.10;;;;;;;;;;1035134;28;20085;-81
2022/12/07 02:24:15;;;;;;;136.18;47.30;;;;;;;;;;1022722;28;20177;-78
2022/12/07 02:24:46;;;;;;;151.05;56.08;;;;;;;;;;1031842;28;20023;-77
2022/12/07 02:25:25;;;;;;;131.63;50.55;;;;;;;;;;1032321;28;20382;-79
2022/12/07 02:26:07;;;;;;;138.60;50.38;;;;;;;;;;1033683;28;20037;-82
2022/12/07 02:26:37;;;;;;;141.30;55.70;;;;;;;;;;1055753;23;20099;-79
2022/12/07 02:27:23;;;;;;;143.00;51.33;;;;;;;;;;1040155;28;21046;-80
2022/12/07 02:28:17;;;;;;;126.82;53.33;;;;;;;;;;1038663;28;20116;-78
2022/12/07 02:28:56;;;;;;;168.43;57.15;;;;;;;;;;1033977;28;20037;-79
2022/12/07 02:29:30;;;;;;;141.07;55.72;;;;;;;;;;1039723;28;20107;-78
2022/12/07 02:30:20;;;;;;;161.32;56.92;;;;;;;;;;1038830;28;20036;-79
2022/12/07 02:30:52;;;;;;;149.32;52.50;;;;;;;;;;1037785;28;20406;-79
2022/12/07 02:31:23;;;;;;;145.85;54.20;;;;;;;;;;1036245;28;20089;-79
2022/12/07 02:32:03;;;;;;;146.85;58.38;;;;;;;;;;1036113;28;20036;-78
2022/12/07 02:32:34;;;;;;;144.95;55.88;;;;;;;;;;1037162;28;20025;-79
2022/12/07 02:33:14;;;;;;;135.65;54.72;;;;;;;;;;1037926;28;20037;-81
2022/12/07 02:33:57;;;;;;;126.43;55.40;;;;;;;;;;1034633;28;20037;-80
2022/12/07 02:34:28;;;;;;;151.57;55.85;;;;;;;;;;1033588;28;20084;-80
2022/12/07 02:35:04;;;;;;;130.77;55.13;;;;;;;;;;1034392;28;20029;-79
2022/12/07 02:35:44;;;;;;;145.35;56.50;;;;;;;;;;1035076;28;20042;-81
2022/12/07 02:36:53;;;;;;;149.82;56.28;;;;;;;;;;1038047;23;20776;-80
2022/12/07 02:37:27;;;;;;;152.35;55.47;;;;;;;;;;1032134;28;20026;-79
2022/12/07 02:38:02;;;;;;;134.75;54.45;;;;;;;;;;1034652;28;20030;-80
2022/12/07 02:38:36;;;;;;;137.85;59.92;;;;;;;;;;1035038;28;20038;-80
2022/12/07 02:39:19;;;;;;;132.50;57.17;;;;;;;;;;1034770;28;20029;-81
2022/12/07 02:40:09;;;;;;;153.63;61.00;;;;;;;;;;1034643;28;20116;-80
2022/12/07 02:40:43;;;;;;;133.82;58.88;;;;;;;;;;1031548;28;20042;-80
2022/12/07 02:41:37;;;;;;;140.68;55.97;;;;;;;;;;1032753;28;20023;-80
2022/12/07 02:42:12;;;;;;;166.20;63.30;;;;;;;;;;1030110;28;20182;-80
2022/12/07 02:42:53;;;;;;;169.10;64.10;;;;;;;;;;1033849;28;20022;-80
2022/12/07 02:43:28;;;;;;;162.95;60.13;;;;;;;;;;1032627;28;20030;-79
2022/12/07 02:44:00;;;;;;;151.70;62.42;;;;;;;;;;1032067;28;20026;-80
2022/12/07 02:44:31;;;;;;;157.77;65.72;;;;;;;;;;1034641;28;20028;-80
2022/12/07 02:45:03;;;;;;;153.90;62.47;;;;;;;;;;1036113;28;20096;-81
2022/12/07 02:45:35;;;;;;;143.77;62.90;;;;;;;;;;1032828;28;20516;-80
2022/12/07 02:46:08;;;;;;;168.80;64.68;;;;;;;;;;1030103;28;20022;-79
2022/12/07 02:46:44;;;;;;;152.23;61.70;;;;;;;;;;1028354;28;20041;-81
2022/12/07 02:47:16;;;;;;;155.90;62.55;;;;;;;;;;1027511;28;20101;-82
2022/12/07 02:47:49;;;;;;;139.07;63.33;;;;;;;;;;1057249;23;20582;-78
2022/12/07 02:48:20;;;;;;;162.43;65.00;;;;;;;;;;1037244;28;20017;-79
2022/12/07 02:48:52;;;;;;;163.85;65.88;;;;;;;;;;1034644;28;20034;-79
2022/12/07 02:49:23;;;;;;;155.20;62.72;;;;;;;;;;1033217;28;20049;-77
2022/12/07 02:49:55;;;;;;;155.57;63.75;;;;;;;;;;1030146;28;20477;-77
2022/12/07 02:50:27;;;;;;;148.05;59.95;;;;;;;;;;1033687;28;20109;-77
2022/12/07 02:50:57;;;;;;;145.90;61.45;;;;;;;;;;1030369;28;20030;-78
2022/12/07 02:51:32;;;;;;;148.70;67.70;;;;;;;;;;1031916;28;20470;-78
2022/12/07 02:52:02;;;;;;;150.48;66.20;;;;;;;;;;1030142;28;20030;-79
2022/12/07 02:52:33;;;;;;;145.68;62.13;;;;;;;;;;1029622;28;20522;-81
2022/12/07 02:53:04;;;;;;;161.57;66.15;;;;;;;;;;1034371;28;20031;-82
2022/12/07 02:53:36;;;;;;;164.77;74.57;;;;;;;;;;1035729;28;20032;-81
2022/12/07 02:54:14;;;;;;;163.93;73.22;;;;;;;;;;1031153;28;20529;-81
2022/12/07 02:54:44;;;;;;;171.40;66.63;;;;;;;;;;1032272;28;20018;-79
2022/12/07 02:55:17;;;;;;;179.27;73.30;;;;;;;;;;1033675;28;20049;-80
2022/12/07 02:55:48;;;;;;;183.50;73.90;;;;;;;;;;1032267;28;20721;-77
2022/12/07 02:56:18;;;;;;;161.95;67.85;;;;;;;;;;1034750;28;20088;-80
2022/12/07 02:56:49;;;;;;;174.52;70.63;;;;;;;;;;1032770;28;20086;-83
2022/12/07 02:57:45;;;;;;;162.98;72.03;;;;;;;;;;1032739;28;20060;-79
2022/12/07 02:58:16;;;;;;;154.13;63.15;;;;;;;;;;1029391;28;20022;-81
2022/12/07 02:59:17;;;;;;;158.70;63.50;;;;;;;;;;1041078;23;20057;-82
2022/12/07 03:00:01;;;;;;;162.63;68.32;;;;;;;;;;1036913;28;20160;-77
2022/12/07 03:00:37;;;;;;;148.43;62.85;;;;;;;;;;1031863;28;20612;-78
2022/12/07 03:01:26;;;;;;;178.32;71.55;;;;;;;;;;1033720;28;20088;-77
2022/12/07 03:02:16;;;;;;;159.70;62.57;;;;;;;;;;1033329;28;20061;-77
2022/12/07 03:02:59;;;;;;;150.00;64.78;;;;;;;;;;1032514;28;20466;-77
2022/12/07 03:03:30;;;;;;;151.73;67.65;;;;;;;;;;1032391;28;20037;-76
2022/12/07 03:04:27;;;;;;;163.13;69.90;;;;;;;;;;1031932;28;20076;-77
2022/12/07 03:05:09;;;;;;;169.32;69.28;;;;;;;;;;1029821;28;20034;-77
2022/12/07 03:05:48;;;;;;;185.48;72.97;;;;;;;;;;1033868;28;20053;-77
2022/12/07 03:06:39;;;;;;;173.95;74.07;;;;;;;;;;1031848;28;20033;-77
2022/12/07 03:07:28;;;;;;;163.18;65.18;;;;;;;;;;1033904;28;20100;-77
2022/12/07 03:08:06;;;;;;;138.27;59.90;;;;;;;;;;1034901;28;20546;-78
2022/12/07 03:08:57;;;;;;;158.68;68.60;;;;;;;;;;1033872;28;20111;-77
2022/12/07 03:09:32;;;;;;;164.38;63.03;;;;;;;;;;1033013;28;20062;-77
2022/12/07 03:10:13;;;;;;;172.07;68.93;;;;;;;;;;1034293;28;20033;-77
2022/12/07 03:10:53;;;;;;;168.75;67.38;;;;;;;;;;1031394;28;20509;-78
2022/12/07 03:11:37;;;;;;;148.60;62.40;;;;;;;;;;1036837;28;20108;-78